Time;durP1;ratioP1;P1;durP2;ratioP2;P2;SDS_P1;SDS_P2;PMS_P1;PMS_P2;Temp;Humidity;BMP_temperature;BMP_pressure;BME280_temperature;BME280_humidity;BME280_pressure;Samples;Min_cycle;Max_cycle;Signal;HPM_P1;HPM_P2
2022/08/17 00:01:39;;;;;;;;;17.25;17.25;;;;;20.08;100.00;100004.00;5076474;27;46536;-72
2022/08/17 00:04:04;;;;;;;;;18.00;18.00;;;;;20.09;100.00;99997.69;5076508;27;45271;-72
2022/08/17 00:06:30;;;;;;;;;18.50;18.50;;;;;20.10;100.00;100008.22;5076691;27;45258;-72
2022/08/17 00:09:03;;;;;;;;;17.50;17.50;;;;;20.11;100.00;99996.56;5076623;27;45333;-71
2022/08/17 00:11:35;;;;;;;;;19.75;19.50;;;;;20.10;100.00;99986.00;5077173;27;46289;-70
2022/08/17 00:14:06;;;;;;;;;16.50;16.50;;;;;20.12;100.00;99981.38;5077539;27;45267;-70
2022/08/17 00:16:35;;;;;;;;;19.25;19.00;;;;;20.09;100.00;99984.31;5078067;27;45306;-72
2022/08/17 00:19:04;;;;;;;;;19.50;19.50;;;;;20.09;100.00;99984.31;5076808;27;45272;-72
2022/08/17 00:21:30;;;;;;;;;17.25;17.25;;;;;20.09;100.00;99977.19;5075892;28;45487;-70
2022/08/17 00:23:56;;;;;;;;;19.75;19.75;;;;;20.08;100.00;99975.50;5076309;28;45222;-71
2022/08/17 00:26:23;;;;;;;;;17.25;17.25;;;;;20.10;100.00;99978.00;5076199;27;45250;-71
2022/08/17 00:28:48;;;;;;;;;19.75;19.75;;;;;20.11;100.00;99982.38;5076411;27;45246;-70
2022/08/17 00:31:14;;;;;;;;;18.50;18.50;;;;;20.10;100.00;99978.00;5075848;27;45369;-71
2022/08/17 00:33:41;;;;;;;;;19.50;18.50;;;;;20.08;100.00;99970.16;5076293;27;45300;-70
2022/08/17 00:36:06;;;;;;;;;17.25;16.50;;;;;20.08;100.00;99978.16;5076210;27;45326;-70
2022/08/17 00:38:34;;;;;;;;;17.50;17.50;;;;;20.10;100.00;99973.53;5076384;27;45375;-71
2022/08/17 00:41:08;;;;;;;;;20.25;20.25;;;;;20.12;100.00;99973.38;5076471;27;45662;-70
2022/08/17 00:43:39;;;;;;;;;19.75;19.75;;;;;20.12;100.00;99968.88;5075670;28;45335;-71
2022/08/17 00:46:11;;;;;;;;;17.25;17.25;;;;;20.13;100.00;99975.06;5076100;27;45194;-72
2022/08/17 00:48:36;;;;;;;;;17.00;17.00;;;;;20.12;100.00;99968.03;5076134;27;45363;-71
2022/08/17 00:51:06;;;;;;;;;16.00;16.00;;;;;20.15;100.00;99967.78;5075801;27;45335;-71
2022/08/17 00:53:35;;;;;;;;;16.75;16.75;;;;;20.13;100.00;99962.56;5075758;27;45370;-70
2022/08/17 00:56:05;;;;;;;;;17.25;17.25;;;;;20.16;100.00;99963.28;5076121;27;45315;-71
2022/08/17 00:58:31;;;;;;;;;18.25;18.25;;;;;20.16;100.00;99968.63;5075839;28;45510;-71
2022/08/17 01:01:00;;;;;;;;;17.75;17.75;;;;;20.14;100.00;99966.06;5057101;28;46299;-71
2022/08/17 01:03:28;;;;;;;;;16.75;16.00;;;;;20.15;100.00;99957.09;5075873;27;45320;-71
2022/08/17 01:05:57;;;;;;;;;16.75;16.75;;;;;20.18;100.00;99972.84;5075651;27;45161;-71
2022/08/17 01:08:28;;;;;;;;;18.75;18.75;;;;;20.18;100.00;99972.84;5075677;27;45557;-70
2022/08/17 01:10:56;;;;;;;;;18.50;18.25;;;;;20.18;100.00;99982.66;5075312;27;45357;-72
2022/08/17 01:13:24;;;;;;;;;20.00;20.00;;;;;20.17;100.00;99980.97;5075144;27;45367;-72
2022/08/17 01:15:53;;;;;;;;;18.50;18.50;;;;;20.16;100.00;99974.81;5075326;27;45337;-73
2022/08/17 01:18:19;;;;;;;;;17.50;17.50;;;;;20.16;100.00;99976.63;5073927;27;45193;-71
2022/08/17 01:20:50;;;;;;;;;18.25;17.25;;;;;20.18;100.00;99983.53;5073578;27;47442;-71
2022/08/17 01:23:17;;;;;;;;;17.00;17.00;;;;;20.15;100.00;99978.47;5073239;27;45358;-71
2022/08/17 01:25:44;;;;;;;;;16.00;16.00;;;;;20.16;100.00;99979.28;5075051;27;45301;-71
2022/08/17 01:28:09;;;;;;;;;18.25;18.25;;;;;20.15;100.00;99983.81;5075064;27;45456;-71
2022/08/17 01:30:35;;;;;;;;;17.25;17.25;;;;;20.13;100.00;99980.41;5074675;27;47600;-70
2022/08/17 01:33:00;;;;;;;;;17.75;17.75;;;;;20.13;100.00;99980.41;5075284;27;45294;-71
2022/08/17 01:35:25;;;;;;;;;20.00;20.00;;;;;20.11;100.00;99977.88;5075069;27;45202;-70
2022/08/17 01:37:51;;;;;;;;;20.00;20.00;;;;;20.06;100.00;99977.44;5075247;27;45576;-71
2022/08/17 01:40:43;;;;;;;;;21.25;21.25;;;;;20.11;100.00;99983.22;5074859;27;46185;-72
2022/08/17 01:43:20;;;;;;;;;24.75;24.75;;;;;20.09;100.00;99987.00;5075161;27;45362;-69
2022/08/17 01:45:47;;;;;;;;;20.75;20.75;;;;;20.07;100.00;99983.63;5074896;27;45365;-71
2022/08/17 01:48:13;;;;;;;;;22.00;22.00;;;;;20.07;100.00;99980.94;5074666;27;45478;-69
2022/08/17 01:50:42;;;;;;;;;22.00;20.25;;;;;20.05;100.00;99977.56;5072854;28;48587;-69
2022/08/17 01:53:15;;;;;;;;;21.75;21.75;;;;;20.00;100.00;99972.66;5074694;27;46007;-72
2022/08/17 01:56:08;;;;;;;;;20.25;20.25;;;;;20.00;100.00;99984.19;5074916;27;45252;-70
2022/08/17 01:58:35;;;;;;;;;23.00;23.00;;;;;19.95;100.00;99975.75;5074682;27;45299;-70
2022/08/17 02:01:01;;;;;;;;;18.00;18.00;;;;;19.92;100.00;99984.03;5074899;27;46260;-71
2022/08/17 02:03:28;;;;;;;;;21.75;21.75;;;;;19.88;100.00;99989.75;5074621;27;45499;-70
2022/08/17 02:05:54;;;;;;;;;20.00;20.00;;;;;19.87;100.00;99994.22;5073446;28;45434;-73
2022/08/17 02:08:21;;;;;;;;;19.50;19.50;;;;;19.84;100.00;99999.84;5074058;28;45481;-71
2022/08/17 02:10:48;;;;;;;;;19.25;19.25;;;;;19.79;100.00;100004.75;5075862;27;46255;-72
2022/08/17 02:13:13;;;;;;;;;17.25;17.25;;;;;19.77;100.00;99996.03;5075411;27;45496;-70
2022/08/17 02:15:39;;;;;;;;;17.00;17.00;;;;;19.75;100.00;99996.19;5075531;28;45410;-72
2022/08/17 02:18:05;;;;;;;;;19.75;19.75;;;;;19.70;100.00;99991.25;5075291;27;45458;-71
2022/08/17 02:20:30;;;;;;;;;21.50;21.50;;;;;19.71;100.00;99989.44;5073431;28;45640;-71
2022/08/17 02:22:59;;;;;;;;;17.50;17.50;;;;;19.68;100.00;99993.19;5074417;27;45380;-72
2022/08/17 02:25:26;;;;;;;;;19.00;19.00;;;;;19.67;100.00;99988.00;5074576;27;45189;-71
2022/08/17 02:27:52;;;;;;;;;22.50;22.00;;;;;19.65;100.00;99981.97;5074215;27;45548;-71
2022/08/17 02:30:17;;;;;;;;;20.25;20.25;;;;;19.61;100.00;99978.72;5073506;28;57272;-72
2022/08/17 02:32:43;;;;;;;;;21.00;21.00;;;;;19.61;100.00;99993.84;5074032;27;49080;-72
2022/08/17 02:35:09;;;;;;;;;22.00;21.25;;;;;19.58;100.00;99992.31;5074564;27;45311;-71
2022/08/17 02:37:34;;;;;;;;;23.00;23.00;;;;;19.58;100.00;99996.78;5074854;27;45557;-70
2022/08/17 02:40:00;;;;;;;;;23.25;22.50;;;;;19.56;100.00;99996.94;5073920;27;46502;-72
2022/08/17 02:42:37;;;;;;;;;19.50;19.50;;;;;19.55;100.00;99997.94;5073991;27;45345;-71
2022/08/17 02:45:06;;;;;;;;;23.00;23.00;;;;;19.53;100.00;100005.22;5074363;28;45310;-71
2022/08/17 02:47:32;;;;;;;;;22.50;21.75;;;;;19.51;100.00;100005.34;5074514;27;45370;-71
2022/08/17 02:49:58;;;;;;;;;21.25;21.25;;;;;19.51;100.00;100008.00;5074208;28;46432;-71
2022/08/17 02:52:26;;;;;;;;;17.00;17.00;;;;;19.48;100.00;100013.59;5073890;27;45321;-71
2022/08/17 02:54:52;;;;;;;;;19.50;19.50;;;;;19.50;100.00;100016.16;5074246;28;45218;-71
2022/08/17 02:57:17;;;;;;;;;22.00;22.00;;;;;19.50;100.00;100003.66;5074187;27;45217;-71
2022/08/17 02:59:43;;;;;;;;;23.00;23.00;;;;;19.50;100.00;100008.97;5073898;27;45496;-71
2022/08/17 03:02:10;;;;;;;;;22.25;22.25;;;;;19.54;100.00;100009.56;5073894;27;45342;-71
2022/08/17 03:04:36;;;;;;;;;24.75;24.75;;;;;19.55;100.00;100001.41;5074368;27;45342;-70
2022/08/17 03:07:03;;;;;;;;;22.00;22.00;;;;;19.61;100.00;99996.53;5073931;27;45575;-70
2022/08/17 03:09:28;;;;;;;;;24.25;21.75;;;;;19.62;100.00;99984.91;5073403;27;45602;-70
2022/08/17 03:11:54;;;;;;;;;23.25;22.75;;;;;19.67;100.00;99980.84;5076089;27;45392;-70
2022/08/17 03:14:20;;;;;;;;;26.50;26.50;;;;;19.70;100.00;99983.22;5076977;27;45464;-71
2022/08/17 03:16:45;;;;;;;;;22.75;22.75;;;;;19.74;100.00;99978.50;5077178;27;45447;-71
2022/08/17 03:19:11;;;;;;;;;23.50;23.00;;;;;19.75;100.00;99974.84;5076847;27;45514;-71
2022/08/17 03:21:36;;;;;;;;;22.00;22.00;;;;;19.78;100.00;99977.22;5077193;27;45261;-71
2022/08/17 03:24:02;;;;;;;;;24.50;24.50;;;;;19.83;100.00;99976.81;5077255;27;45198;-69
2022/08/17 03:26:27;;;;;;;;;23.75;23.75;;;;;19.88;100.00;99981.75;5077464;27;45236;-71
2022/08/17 03:28:53;;;;;;;;;20.75;20.75;;;;;19.90;100.00;99975.31;5076915;27;45258;-71
2022/08/17 03:31:20;;;;;;;;;23.75;23.75;;;;;19.93;100.00;99966.19;5077114;27;45260;-72
2022/08/17 03:33:45;;;;;;;;;22.75;22.75;;;;;19.95;100.00;99967.72;5077530;27;45271;-71
2022/08/17 03:36:10;;;;;;;;;21.50;21.50;;;;;20.01;100.00;99955.66;5077068;27;45496;-69
2022/08/17 03:38:36;;;;;;;;;21.25;21.25;;;;;20.03;100.00;99950.19;5077149;27;45535;-71
2022/08/17 03:41:04;;;;;;;;;23.00;23.00;;;;;20.07;100.00;99963.13;5076785;27;45323;-71
2022/08/17 03:43:31;;;;;;;;;26.00;25.25;;;;;20.09;100.00;99962.97;5076972;27;45380;-71
2022/08/17 03:57:02;;;;;;;;;27.75;27.75;;;;;20.23;100.00;99975.94;5076880;27;45327;-73
2022/08/17 03:59:28;;;;;;;;;23.50;23.50;;;;;20.26;100.00;99975.66;5076541;27;46276;-72
2022/08/17 04:01:57;;;;;;;;;22.25;22.25;;;;;20.26;100.00;99973.00;5076312;27;45387;-71
2022/08/17 04:04:23;;;;;;;;;24.50;23.50;;;;;20.30;100.00;99986.88;5077002;27;45272;-71
2022/08/17 04:06:49;;;;;;;;;27.00;27.00;;;;;20.25;100.00;99979.31;5078441;27;45475;-71
2022/08/17 04:09:15;;;;;;;;;23.50;22.50;;;;;20.29;100.00;99988.72;5080196;27;45818;-72
2022/08/17 04:11:40;;;;;;;;;26.50;25.50;;;;;20.31;100.00;99998.44;5076786;27;45816;-70
2022/08/17 04:14:06;;;;;;;;;24.25;24.25;;;;;20.29;100.00;99999.41;5076780;27;45321;-70
2022/08/17 04:16:33;;;;;;;;;26.75;26.75;;;;;20.33;100.00;100004.47;5076372;27;45600;-71
2022/08/17 04:18:59;;;;;;;;;20.50;20.50;;;;;20.35;100.00;100003.34;5075986;27;46442;-72
2022/08/17 04:21:24;;;;;;;;;22.00;22.00;;;;;20.37;100.00;100000.53;5075633;28;45512;-73
2022/08/17 04:23:50;;;;;;;;;25.00;25.00;;;;;20.39;100.00;100011.94;5076120;27;45364;-71
2022/08/17 04:26:16;;;;;;;;;23.50;23.25;;;;;20.39;100.00;100006.59;5076364;27;45361;-71
2022/08/17 04:28:43;;;;;;;;;20.50;20.50;;;;;20.40;100.00;100016.28;5075822;27;45392;-71
2022/08/17 04:31:09;;;;;;;;;24.50;24.50;;;;;20.41;100.00;100007.28;5076246;27;45427;-70
2022/08/17 04:33:36;;;;;;;;;27.00;27.00;;;;;20.41;100.00;100017.97;5074601;28;45280;-71
2022/08/17 04:36:04;;;;;;;;;25.25;25.25;;;;;20.41;100.00;100015.31;5076207;27;45415;-71
2022/08/17 04:38:32;;;;;;;;;20.50;20.50;;;;;20.40;100.00;100013.63;5075602;27;45367;-70
2022/08/17 04:43:45;;;;;;;;;22.75;22.75;;;;;20.36;100.00;100002.34;5075760;27;45314;-71
2022/08/17 04:46:16;;;;;;;;;20.00;20.00;;;;;20.34;100.00;100006.16;5076507;27;45253;-71
2022/08/17 04:48:53;;;;;;;;;23.50;23.00;;;;;20.31;100.00;100001.09;5076133;27;45326;-71
2022/08/17 04:51:40;;;;;;;;;18.75;18.75;;;;;20.28;100.00;100005.75;5075657;27;45196;-71
2022/08/17 04:54:09;;;;;;;;;22.75;22.75;;;;;20.25;100.00;100005.16;5075630;27;45305;-70
2022/08/17 04:56:35;;;;;;;;;24.75;24.75;;;;;20.23;100.00;99997.31;5074472;28;45271;-71
2022/08/17 04:59:04;;;;;;;;;23.50;23.50;;;;;20.21;100.00;99987.72;5075718;27;46102;-71
2022/08/17 05:01:32;;;;;;;;;24.00;24.00;;;;;20.20;100.00;99988.72;5074598;28;45788;-71
2022/08/17 05:04:01;;;;;;;;;21.50;21.50;;;;;20.19;100.00;99990.56;5075920;27;45414;-70
2022/08/17 05:06:28;;;;;;;;;24.00;24.00;;;;;20.18;100.00;99988.00;5075896;27;45218;-72
2022/08/17 05:08:54;;;;;;;;;45.50;39.00;;;;;20.16;100.00;99982.81;5075201;27;46287;-70
2022/08/17 05:11:21;;;;;;;;;25.25;25.00;;;;;20.15;100.00;99986.47;5075623;27;45286;-70
2022/08/17 05:13:48;;;;;;;;;23.50;23.50;;;;;20.14;100.00;99976.75;5075602;27;45353;-71
2022/08/17 05:16:15;;;;;;;;;25.25;25.25;;;;;20.15;100.00;99970.47;5075566;27;45584;-70
2022/08/17 05:18:40;;;;;;;;;24.25;24.25;;;;;20.16;100.00;99977.47;5075966;27;45590;-72
2022/08/17 05:21:06;;;;;;;;;25.75;25.75;;;;;20.17;100.00;99980.97;5076424;27;45309;-71
2022/08/17 05:23:32;;;;;;;;;27.50;27.50;;;;;20.20;100.00;99989.56;5076640;27;45346;-71
2022/08/17 05:25:58;;;;;;;;;26.25;25.50;;;;;20.22;100.00;99992.94;5074427;28;45327;-71
2022/08/17 05:28:28;;;;;;;;;26.00;26.00;;;;;20.23;100.00;99989.28;5074238;27;48271;-71
2022/08/17 05:31:00;;;;;;;;;28.50;28.50;;;;;20.23;100.00;99977.75;5074964;28;45422;-71
2022/08/17 05:33:32;;;;;;;;;29.00;29.00;;;;;20.21;100.00;99977.91;5074748;27;45231;-71
2022/08/17 05:35:59;;;;;;;;;28.25;28.25;;;;;20.19;100.00;99984.34;5076500;27;45322;-73
2022/08/17 05:38:27;;;;;;;;;30.50;29.25;;;;;20.13;100.00;99981.25;5076918;27;45680;-72
2022/08/17 05:40:53;;;;;;;;;27.00;27.00;;;;;20.14;100.00;99976.75;5075418;27;45353;-70
2022/08/17 05:43:22;;;;;;;;;26.75;26.75;;;;;20.13;100.00;99967.91;5075212;27;45390;-71
2022/08/17 05:46:08;;;;;;;;;24.50;24.50;;;;;20.11;100.00;99966.34;5075181;27;45290;-71
2022/08/17 05:48:41;;;;;;;;;29.75;29.00;;;;;20.16;100.00;99973.94;5074902;28;45667;-72
2022/08/17 05:51:28;;;;;;;;;24.75;24.75;;;;;20.18;100.00;99974.66;5075044;27;45344;-70
2022/08/17 05:54:29;;;;;;;;;25.75;25.75;;;;;20.17;100.00;99970.31;5074980;28;45368;-72
2022/08/17 05:57:00;;;;;;;;;26.25;26.25;;;;;20.21;100.00;99972.56;5075108;27;45330;-71
2022/08/17 05:59:57;;;;;;;;;22.50;22.50;;;;;20.27;100.00;99969.34;5074688;27;46792;-70
2022/08/17 06:02:40;;;;;;;;;26.75;26.75;;;;;20.31;100.00;99967.22;5075647;27;45307;-71
2022/08/17 06:05:14;;;;;;;;;25.75;25.75;;;;;20.33;100.00;99962.56;5076672;27;45333;-72
2022/08/17 06:07:58;;;;;;;;;25.75;25.50;;;;;20.36;100.00;99964.97;5076073;27;45521;-71
2022/08/17 06:10:35;;;;;;;;;26.75;26.75;;;;;20.40;100.00;99965.53;5074394;27;45504;-72
2022/08/17 06:13:35;;;;;;;;;27.00;27.00;;;;;20.43;100.00;99954.56;5074441;28;45475;-71
2022/08/17 06:16:08;;;;;;;;;34.75;32.50;;;;;20.49;100.00;99962.03;5055294;27;45366;-72
2022/08/17 06:18:42;;;;;;;;;27.00;27.00;;;;;20.54;100.00;99962.44;5074685;27;45412;-70
2022/08/17 06:21:13;;;;;;;;;28.50;28.50;;;;;20.64;100.00;99973.09;5074435;27;46600;-71
2022/08/17 06:23:44;;;;;;;;;26.00;26.00;;;;;20.75;100.00;99984.66;5074458;27;45286;-70
2022/08/17 06:26:14;;;;;;;;;25.75;25.75;;;;;20.82;100.00;100000.00;5089764;27;45232;-70
2022/08/17 06:28:51;;;;;;;;;27.50;27.50;;;;;20.86;100.00;100004.06;5055803;28;45633;-71
2022/08/17 06:31:31;;;;;;;;;25.25;25.25;;;;;20.91;100.00;100016.16;5074161;27;46418;-72
2022/08/17 06:33:59;;;;;;;;;23.50;23.50;;;;;20.96;100.00;100028.13;5073916;27;45356;-70
2022/08/17 06:36:55;;;;;;;;;24.50;24.50;;;;;21.00;100.00;100039.34;5074016;27;45381;-70
2022/08/17 06:39:51;;;;;;;;;29.25;28.25;;;;;21.05;100.00;100034.41;5074389;27;45409;-71
2022/08/17 06:42:43;;;;;;;;;22.75;22.75;;;;;21.13;100.00;100039.88;5074257;27;45479;-71
2022/08/17 06:45:21;;;;;;;;;22.50;22.50;;;;;21.17;100.00;100046.63;5075646;27;45353;-71
2022/08/17 06:48:12;;;;;;;;;26.75;26.75;;;;;21.21;100.00;100043.72;5078122;27;45561;-70
2022/08/17 06:50:52;;;;;;;;;26.00;26.00;;;;;21.23;100.00;100041.72;5078310;27;45269;-70
2022/08/17 06:53:58;;;;;;;;;20.75;20.75;;;;;21.25;100.00;100040.59;5077904;27;45395;-70
2022/08/17 06:56:53;;;;;;;;;26.00;26.00;;;;;21.26;99.94;100031.56;5077586;27;45396;-72
2022/08/17 06:59:27;;;;;;;;;27.75;27.00;;;;;21.28;99.81;100040.28;5076786;28;45429;-72
2022/08/17 07:01:55;;;;;;;;;22.25;22.25;;;;;21.28;99.77;100031.44;5077766;27;46005;-72
2022/08/17 07:04:28;;;;;;;;;26.25;26.25;;;;;21.29;100.00;100035.81;5077395;27;46456;-70
2022/08/17 07:08:00;;;;;;;;;28.75;28.50;;;;;21.33;99.34;100033.66;5077130;27;45278;-72
2022/08/17 07:09:55;;;;;;;;;42.75;37.25;;;;;21.35;99.38;100029.00;5077419;27;45321;-72
2022/08/17 07:12:26;;;;;;;;;26.25;26.25;;;;;21.38;97.94;100050.13;5076217;28;45619;-72
2022/08/17 07:15:04;;;;;;;;;26.75;26.75;;;;;21.35;99.05;100045.06;5077234;27;46094;-72
2022/08/17 07:17:32;;;;;;;;;22.75;22.75;;;;;21.43;98.29;100059.41;5077409;27;45184;-73
2022/08/17 07:20:07;;;;;;;;;27.00;27.00;;;;;21.42;97.54;100057.72;5077228;28;45279;-75
2022/08/17 07:22:53;;;;;;;;;30.00;29.00;;;;;21.43;97.47;100069.25;5077194;27;45317;-72
2022/08/17 07:25:20;;;;;;;;;27.25;27.25;;;;;21.44;98.59;100071.78;5076975;27;47419;-72
2022/08/17 07:28:06;;;;;;;;;27.50;27.25;;;;;21.51;97.85;100079.25;5077012;27;45535;-71
2022/08/17 07:30:43;;;;;;;;;28.00;28.00;;;;;21.50;98.34;100088.25;5077101;28;45282;-71
2022/08/17 07:33:19;;;;;;;;;27.25;27.25;;;;;21.54;98.02;100095.00;5077139;27;45320;-71
2022/08/17 07:35:47;;;;;;;;;35.75;32.75;;;;;21.56;97.35;100101.06;5076639;27;46398;-74
2022/08/17 07:38:13;;;;;;;;;29.00;29.00;;;;;21.55;97.08;100113.56;5076602;27;45338;-74
2022/08/17 07:40:44;;;;;;;;;27.75;27.75;;;;;21.52;96.19;100107.69;5076474;27;45330;-71
2022/08/17 07:43:15;;;;;;;;;30.00;29.00;;;;;21.51;96.85;100114.03;5076934;27;45548;-72
2022/08/17 07:49:07;;;;;;;;;22.00;22.00;;;;;21.58;96.86;100112.47;5076186;28;45323;-70
2022/08/17 07:51:41;;;;;;;;;37.00;33.25;;;;;21.64;96.63;100121.75;5076485;27;45321;-71
2022/08/17 07:54:18;;;;;;;;;27.00;26.00;;;;;21.66;96.84;100120.63;5076676;27;45319;-71
2022/08/17 07:56:49;;;;;;;;;25.50;24.50;;;;;21.71;96.07;100121.03;5074815;28;47169;-72
2022/08/17 07:59:24;;;;;;;;;26.50;26.50;;;;;21.72;96.12;100128.09;5078363;27;45429;-72
2022/08/17 08:01:55;;;;;;;;;24.75;24.75;;;;;21.74;95.55;100123.44;5078916;27;45335;-72
2022/08/17 08:04:36;;;;;;;;;20.25;20.25;;;;;21.74;95.67;100128.78;5077874;28;45700;-72
2022/08/17 08:07:11;;;;;;;;;21.75;21.75;;;;;21.77;95.69;100126.81;5075948;27;46347;-72
2022/08/17 08:09:43;;;;;;;;;24.50;24.50;;;;;21.76;95.46;100130.47;5075628;27;45228;-70
2022/08/17 08:12:47;;;;;;;;;26.00;26.00;;;;;21.74;95.41;100134.13;5075943;27;45314;-71
2022/08/17 08:15:24;;;;;;;;;31.00;29.50;;;;;21.69;94.69;100143.56;5075345;27;45510;-71
2022/08/17 08:17:56;;;;;;;;;31.00;30.00;;;;;21.58;96.46;100134.69;5075873;27;45568;-74
2022/08/17 08:20:48;;;;;;;;;30.75;29.75;;;;;21.45;96.84;100143.06;5076019;27;45698;-71
2022/08/17 08:23:24;;;;;;;;;32.75;31.25;;;;;21.35;98.96;100142.22;5068722;27;45322;-71
2022/08/17 08:25:57;;;;;;;;;34.50;32.25;;;;;21.26;100.00;100151.09;5076628;27;45494;-70
2022/08/17 08:28:32;;;;;;;;;26.75;26.75;;;;;21.22;100.00;100157.72;5075690;27;46558;-71
2022/08/17 08:31:42;;;;;;;;;35.25;32.50;;;;;21.12;99.57;100153.19;5075703;27;45323;-70
2022/08/17 08:34:26;;;;;;;;;30.00;29.00;;;;;21.04;99.17;100153.06;5068786;27;45814;-71
2022/08/17 08:37:05;;;;;;;;;31.50;30.25;;;;;21.02;100.00;100145.19;5076437;27;45539;-72
2022/08/17 08:39:52;;;;;;;;;29.25;29.00;;;;;21.09;100.00;100145.44;5075805;27;46617;-73
2022/08/17 08:42:40;;;;;;;;;30.75;29.75;;;;;21.14;100.00;100137.03;5076046;27;45437;-70
2022/08/17 08:45:41;;;;;;;;;34.75;32.00;;;;;21.19;99.34;100140.13;5074543;27;45297;-72
2022/08/17 08:48:34;;;;;;;;;42.25;36.75;;;;;21.26;99.39;100151.09;5065855;27;45243;-72
2022/08/17 08:51:42;;;;;;;;;22.00;22.00;;;;;21.41;99.48;100164.88;5076180;28;45477;-72
2022/08/17 08:54:07;;;;;;;;;30.50;29.00;;;;;21.51;98.15;100154.16;5069805;27;45500;-70
2022/08/17 08:57:02;;;;;;;;;24.75;24.50;;;;;21.57;98.71;100150.91;5075893;27;45165;-72
2022/08/17 08:59:27;;;;;;;;;27.25;27.25;;;;;21.67;97.16;100149.09;5075979;27;45496;-71
2022/08/17 09:02:16;;;;;;;;;30.00;29.00;;;;;21.77;96.88;100157.09;5075995;28;46603;-70
2022/08/17 09:05:18;;;;;;;;;25.25;25.25;;;;;21.86;97.15;100150.00;5074003;28;45461;-72
2022/08/17 09:07:52;;;;;;;;;28.00;28.00;;;;;21.94;95.84;100147.44;5074581;28;45425;-72
2022/08/17 09:10:26;;;;;;;;;26.75;26.75;;;;;22.01;96.57;100142.38;5075523;27;45366;-71
2022/08/17 09:13:29;;;;;;;;;25.50;25.50;;;;;22.03;95.21;100154.59;5075813;27;45410;-72
2022/08/17 09:16:05;;;;;;;;;25.50;25.50;;;;;22.09;96.23;100149.66;5066705;27;45565;-70
2022/08/17 09:18:38;;;;;;;;;26.75;26.50;;;;;22.08;94.76;100139.91;5075594;27;45408;-71
2022/08/17 09:21:10;;;;;;;;;27.00;26.75;;;;;22.10;95.94;100146.84;5075609;27;45454;-72
2022/08/17 09:24:01;;;;;;;;;34.25;32.00;;;;;22.11;95.49;100132.44;5075048;27;45264;-72
2022/08/17 09:26:39;;;;;;;;;29.00;28.75;;;;;22.12;94.63;100139.50;5075256;27;45339;-71
2022/08/17 09:29:11;;;;;;;;;30.00;29.50;;;;;22.07;94.19;100140.91;5075340;27;45304;-71
2022/08/17 09:31:46;;;;;;;;;25.25;25.25;;;;;21.99;93.93;100142.50;5075332;28;45250;-73
2022/08/17 09:34:15;;;;;;;;;17.25;17.25;;;;;21.97;94.05;100149.84;5074675;27;46355;-73
2022/08/17 09:37:01;;;;;;;;;26.25;26.25;;;;;21.98;94.34;100150.69;5074939;27;45218;-71
2022/08/17 09:39:38;;;;;;;;;28.25;28.00;;;;;21.95;94.56;100133.06;5074511;27;45314;-72
2022/08/17 09:42:21;;;;;;;;;30.25;29.50;;;;;22.02;93.33;100139.53;5074940;27;45375;-72
2022/08/17 09:45:05;;;;;;;;;22.75;22.50;;;;;22.02;93.28;100133.34;5074606;28;45362;-72
2022/08/17 09:47:40;;;;;;;;;26.75;26.25;;;;;22.04;93.43;100148.25;5074820;27;45375;-73
2022/08/17 09:50:23;;;;;;;;;28.50;28.00;;;;;22.07;93.23;100154.31;5075092;27;45352;-73
2022/08/17 09:52:57;;;;;;;;;32.00;30.25;;;;;22.12;93.41;100160.06;5077147;27;45406;-74
2022/08/17 09:55:30;;;;;;;;;30.50;29.50;;;;;22.16;93.59;100162.31;5078066;27;45690;-71
2022/08/17 09:58:03;;;;;;;;;28.25;28.00;;;;;22.21;93.90;100164.53;5077210;27;45215;-72
2022/08/17 10:00:34;;;;;;;;;32.50;30.75;;;;;22.26;92.91;100178.31;5078370;27;45274;-71
2022/08/17 10:03:20;;;;;;;;;24.25;24.25;;;;;22.31;93.03;100186.78;5074558;27;45598;-71
2022/08/17 10:06:12;;;;;;;;;28.75;27.75;;;;;22.35;92.71;100187.31;5074444;28;46652;-72
2022/08/17 10:09:06;;;;;;;;;31.75;31.00;;;;;22.41;92.21;100185.91;5074167;27;45787;-72
2022/08/17 10:14:56;;;;;;;;;28.00;28.00;;;;;22.52;92.60;100176.84;5074472;27;45473;-71
2022/08/17 10:17:49;;;;;;;;;30.00;28.75;;;;;22.70;91.99;100193.78;5074113;28;45366;-72
2022/08/17 10:26:35;;;;;;;;;28.50;28.25;;;;;22.86;91.59;100201.19;5074147;28;45165;-71
2022/08/17 10:29:18;;;;;;;;;33.50;31.25;;;;;23.02;90.81;100196.97;5074061;28;45722;-71
2022/08/17 10:31:48;;;;;;;;;35.75;32.50;;;;;23.18;89.76;100188.25;5074287;27;45321;-72
2022/08/17 10:34:51;;;;;;;;;37.50;33.50;;;;;23.29;89.42;100192.56;5074447;27;45398;-71
2022/08/17 10:37:47;;;;;;;;;40.50;35.25;;;;;23.41;89.15;100188.66;5074356;27;45246;-72
2022/08/17 10:40:23;;;;;;;;;29.00;28.50;;;;;23.53;88.00;100183.03;5073919;27;46073;-71
2022/08/17 10:43:25;;;;;;;;;30.25;29.00;;;;;23.59;86.35;100167.13;5074053;27;45217;-70
2022/08/17 10:46:03;;;;;;;;;37.00;33.00;;;;;23.60;86.88;100182.25;5073988;28;45343;-74
2022/08/17 10:48:28;;;;;;;;;32.00;30.25;;;;;23.64;86.25;100174.72;5072827;28;45362;-73
2022/08/17 10:51:02;;;;;;;;;31.50;30.25;;;;;23.60;86.15;100186.78;5074081;28;46249;-70
2022/08/17 10:53:30;;;;;;;;;30.75;29.50;;;;;23.52;86.68;100179.50;5074273;27;45243;-72
2022/08/17 10:56:11;;;;;;;;;30.00;29.25;;;;;23.52;86.48;100190.22;5074061;27;45284;-71
2022/08/17 10:58:54;;;;;;;;;31.00;30.00;;;;;23.45;85.86;100191.84;5074323;28;45555;-70
2022/08/17 11:01:56;;;;;;;;;31.75;30.50;;;;;23.37;86.39;100194.47;5072504;28;47605;-71
2022/08/17 11:04:41;;;;;;;;;41.50;36.50;;;;;23.40;87.14;100191.47;5073935;27;45465;-73
2022/08/17 11:07:42;;;;;;;;;32.50;30.75;;;;;23.48;87.07;100194.22;5073628;27;45412;-72
2022/08/17 11:10:20;;;;;;;;;34.25;30.75;;;;;23.64;86.78;100190.84;5073859;27;45263;-71
2022/08/17 11:12:59;;;;;;;;;35.75;32.75;;;;;23.84;86.63;100193.31;5073557;28;45643;-72
2022/08/17 11:16:07;;;;;;;;;35.25;32.50;;;;;24.01;85.24;100189.75;5073690;27;45363;-72
2022/08/17 11:18:45;;;;;;;;;39.00;34.75;;;;;24.26;83.41;100184.50;5073595;27;45325;-70
2022/08/17 11:21:19;;;;;;;;;35.25;32.00;;;;;24.45;83.71;100177.22;5073643;27;45268;-71
2022/08/17 11:24:18;;;;;;;;;39.50;35.25;;;;;24.73;82.94;100177.81;5073466;27;46515;-70
2022/08/17 11:27:12;;;;;;;;;36.00;32.50;;;;;24.92;81.88;100170.47;5071890;28;45779;-70
2022/08/17 11:29:52;;;;;;;;;34.25;32.00;;;;;25.11;81.87;100168.47;5073163;27;45312;-71
2022/08/17 11:32:32;;;;;;;;;33.75;31.50;;;;;25.34;81.32;100165.94;5075317;27;45335;-72
2022/08/17 11:35:20;;;;;;;;;38.25;34.50;;;;;25.60;78.86;100173.03;5077084;27;45397;-72
2022/08/17 11:38:04;;;;;;;;;37.00;33.25;;;;;25.73;77.60;100173.34;5072775;27;45331;-72
2022/08/17 11:41:01;;;;;;;;;31.75;30.75;;;;;25.92;78.25;100187.44;5077297;28;45414;-74
2022/08/17 11:43:27;;;;;;;;;37.00;33.25;;;;;26.16;75.49;100193.81;5068292;27;45217;-72
2022/08/17 11:46:09;;;;;;;;;34.00;31.75;;;;;26.28;75.81;100191.59;5074954;27;46196;-72
2022/08/17 11:51:59;;;;;;;;;36.75;32.50;;;;;26.75;74.58;100189.84;5079478;28;45426;-71
2022/08/17 11:54:34;;;;;;;;;35.25;32.75;;;;;26.80;73.50;100196.38;5076640;27;45563;-71
2022/08/17 11:57:25;;;;;;;;;35.25;32.50;;;;;26.85;73.13;100192.34;5077350;27;45607;-71
2022/08/17 11:59:53;;;;;;;;;35.25;32.50;;;;;26.91;72.53;100187.06;5076419;27;45184;-71
2022/08/17 12:02:26;;;;;;;;;31.75;30.00;;;;;26.94;72.48;100184.03;5076149;27;45394;-71
2022/08/17 12:05:13;;;;;;;;;36.00;33.00;;;;;27.04;70.75;100189.19;5076767;27;45374;-71
2022/08/17 12:08:03;;;;;;;;;32.75;31.25;;;;;26.86;67.85;100194.00;5076046;27;46666;-69
2022/08/17 12:10:31;;;;;;;;;32.50;30.75;;;;;26.62;71.14;100198.50;5076753;27;45357;-70